sensor_id;sensor_type;location;lat;lon;timestamp;P1;durP1;ratioP1;P2;durP2;ratioP2
46110;SDS011;31849;55.992;37.252;2024-02-15T00:01:33;14.30;;;6.43;;
46110;SDS011;31849;55.992;37.252;2024-02-15T00:06:38;10.18;;;4.97;;
46110;SDS011;31849;55.992;37.252;2024-02-15T00:11:42;17.43;;;5.37;;
46110;SDS011;31849;55.992;37.252;2024-02-15T00:16:46;9.60;;;4.95;;
46110;SDS011;31849;55.992;37.252;2024-02-15T00:21:51;11.10;;;5.20;;
46110;SDS011;31849;55.992;37.252;2024-02-15T00:26:56;9.17;;;4.37;;
46110;SDS011;31849;55.992;37.252;2024-02-15T00:32:00;16.42;;;5.78;;
46110;SDS011;31849;55.992;37.252;2024-02-15T00:37:07;12.13;;;5.50;;
46110;SDS011;31849;55.992;37.252;2024-02-15T00:42:11;10.40;;;5.57;;
46110;SDS011;31849;55.992;37.252;2024-02-15T00:47:15;9.48;;;4.90;;
46110;SDS011;31849;55.992;37.252;2024-02-15T00:52:23;8.50;;;4.00;;
46110;SDS011;31849;55.992;37.252;2024-02-15T00:57:27;12.03;;;4.80;;
46110;SDS011;31849;55.992;37.252;2024-02-15T01:02:31;11.90;;;5.15;;
46110;SDS011;31849;55.992;37.252;2024-02-15T01:07:37;16.57;;;5.50;;
46110;SDS011;31849;55.992;37.252;2024-02-15T01:12:41;15.77;;;5.90;;
46110;SDS011;31849;55.992;37.252;2024-02-15T01:22:51;13.77;;;5.20;;
46110;SDS011;31849;55.992;37.252;2024-02-15T01:27:54;10.30;;;4.90;;
46110;SDS011;31849;55.992;37.252;2024-02-15T01:32:58;11.32;;;5.28;;
46110;SDS011;31849;55.992;37.252;2024-02-15T01:38:04;13.15;;;5.63;;
46110;SDS011;31849;55.992;37.252;2024-02-15T01:43:08;11.10;;;5.30;;
46110;SDS011;31849;55.992;37.252;2024-02-15T01:48:12;13.13;;;5.22;;
46110;SDS011;31849;55.992;37.252;2024-02-15T01:53:19;16.63;;;5.20;;
46110;SDS011;31849;55.992;37.252;2024-02-15T01:58:23;11.17;;;4.77;;
46110;SDS011;31849;55.992;37.252;2024-02-15T02:03:28;10.93;;;5.80;;
46110;SDS011;31849;55.992;37.252;2024-02-15T02:08:34;10.73;;;5.05;;
46110;SDS011;31849;55.992;37.252;2024-02-15T02:13:38;11.83;;;5.43;;
46110;SDS011;31849;55.992;37.252;2024-02-15T02:18:43;15.40;;;5.40;;
46110;SDS011;31849;55.992;37.252;2024-02-15T02:23:50;11.03;;;4.90;;
46110;SDS011;31849;55.992;37.252;2024-02-15T02:28:57;10.50;;;5.33;;
46110;SDS011;31849;55.992;37.252;2024-02-15T02:34:02;11.83;;;5.60;;
46110;SDS011;31849;55.992;37.252;2024-02-15T02:39:08;10.70;;;5.57;;
46110;SDS011;31849;55.992;37.252;2024-02-15T02:44:14;12.77;;;4.85;;
46110;SDS011;31849;55.992;37.252;2024-02-15T02:49:18;12.57;;;5.43;;
46110;SDS011;31849;55.992;37.252;2024-02-15T02:54:22;12.65;;;5.88;;
46110;SDS011;31849;55.992;37.252;2024-02-15T02:59:27;9.73;;;4.60;;
46110;SDS011;31849;55.992;37.252;2024-02-15T03:04:32;11.70;;;4.70;;
46110;SDS011;31849;55.992;37.252;2024-02-15T03:09:36;12.30;;;4.83;;
46110;SDS011;31849;55.992;37.252;2024-02-15T03:14:41;13.50;;;5.60;;
46110;SDS011;31849;55.992;37.252;2024-02-15T03:19:45;11.73;;;5.90;;
46110;SDS011;31849;55.992;37.252;2024-02-15T03:24:50;16.77;;;6.83;;
46110;SDS011;31849;55.992;37.252;2024-02-15T03:29:57;12.67;;;5.07;;
46110;SDS011;31849;55.992;37.252;2024-02-15T03:35:04;14.07;;;6.10;;
46110;SDS011;31849;55.992;37.252;2024-02-15T03:40:09;15.13;;;5.47;;
46110;SDS011;31849;55.992;37.252;2024-02-15T03:45:14;10.95;;;5.15;;
46110;SDS011;31849;55.992;37.252;2024-02-15T03:50:18;11.67;;;5.17;;
46110;SDS011;31849;55.992;37.252;2024-02-15T03:55:24;15.60;;;5.83;;
46110;SDS011;31849;55.992;37.252;2024-02-15T04:00:29;10.55;;;5.05;;
46110;SDS011;31849;55.992;37.252;2024-02-15T04:05:32;12.83;;;5.73;;
46110;SDS011;31849;55.992;37.252;2024-02-15T04:10:36;10.52;;;5.18;;
46110;SDS011;31849;55.992;37.252;2024-02-15T04:15:41;13.52;;;5.18;;
46110;SDS011;31849;55.992;37.252;2024-02-15T04:20:46;14.97;;;6.50;;
46110;SDS011;31849;55.992;37.252;2024-02-15T04:25:50;11.77;;;5.20;;
46110;SDS011;31849;55.992;37.252;2024-02-15T04:30:56;13.93;;;5.90;;
46110;SDS011;31849;55.992;37.252;2024-02-15T04:35:59;12.77;;;5.17;;
46110;SDS011;31849;55.992;37.252;2024-02-15T04:41:06;13.27;;;5.87;;
46110;SDS011;31849;55.992;37.252;2024-02-15T04:46:13;16.20;;;6.50;;
46110;SDS011;31849;55.992;37.252;2024-02-15T04:51:17;14.77;;;5.53;;
46110;SDS011;31849;55.992;37.252;2024-02-15T04:56:21;12.70;;;5.13;;
46110;SDS011;31849;55.992;37.252;2024-02-15T05:01:26;15.40;;;6.20;;
46110;SDS011;31849;55.992;37.252;2024-02-15T05:06:31;11.00;;;5.33;;
46110;SDS011;31849;55.992;37.252;2024-02-15T05:11:36;14.25;;;5.72;;
46110;SDS011;31849;55.992;37.252;2024-02-15T05:16:42;14.13;;;5.73;;
46110;SDS011;31849;55.992;37.252;2024-02-15T05:21:45;15.90;;;5.60;;
46110;SDS011;31849;55.992;37.252;2024-02-15T05:26:49;12.88;;;6.20;;
46110;SDS011;31849;55.992;37.252;2024-02-15T05:31:55;14.33;;;5.60;;
46110;SDS011;31849;55.992;37.252;2024-02-15T05:36:59;15.30;;;6.23;;
46110;SDS011;31849;55.992;37.252;2024-02-15T05:42:03;14.30;;;7.07;;
46110;SDS011;31849;55.992;37.252;2024-02-15T05:47:08;16.05;;;6.68;;
46110;SDS011;31849;55.992;37.252;2024-02-15T05:52:13;13.63;;;6.40;;
46110;SDS011;31849;55.992;37.252;2024-02-15T05:57:17;13.80;;;5.47;;
46110;SDS011;31849;55.992;37.252;2024-02-15T06:02:22;18.75;;;8.27;;
46110;SDS011;31849;55.992;37.252;2024-02-15T06:07:26;15.03;;;6.10;;
46110;SDS011;31849;55.992;37.252;2024-02-15T06:12:30;14.93;;;6.70;;
46110;SDS011;31849;55.992;37.252;2024-02-15T06:17:37;13.38;;;6.50;;
46110;SDS011;31849;55.992;37.252;2024-02-15T06:22:41;18.63;;;8.37;;
46110;SDS011;31849;55.992;37.252;2024-02-15T06:27:45;21.00;;;7.80;;
46110;SDS011;31849;55.992;37.252;2024-02-15T06:32:51;14.63;;;6.50;;
46110;SDS011;31849;55.992;37.252;2024-02-15T06:38:13;16.27;;;6.23;;
46110;SDS011;31849;55.992;37.252;2024-02-15T06:43:34;16.73;;;7.70;;
46110;SDS011;31849;55.992;37.252;2024-02-15T06:48:41;9.32;;;3.80;;
46110;SDS011;31849;55.992;37.252;2024-02-15T06:53:47;20.27;;;7.90;;
46110;SDS011;31849;55.992;37.252;2024-02-15T07:03:56;16.77;;;7.63;;
46110;SDS011;31849;55.992;37.252;2024-02-15T07:09:00;15.33;;;6.93;;
46110;SDS011;31849;55.992;37.252;2024-02-15T07:14:05;16.07;;;6.63;;
46110;SDS011;31849;55.992;37.252;2024-02-15T07:19:10;13.30;;;6.35;;
46110;SDS011;31849;55.992;37.252;2024-02-15T07:24:15;16.50;;;7.73;;
46110;SDS011;31849;55.992;37.252;2024-02-15T07:29:19;18.23;;;8.18;;
46110;SDS011;31849;55.992;37.252;2024-02-15T07:34:24;13.85;;;6.97;;
46110;SDS011;31849;55.992;37.252;2024-02-15T07:39:28;15.50;;;6.93;;
46110;SDS011;31849;55.992;37.252;2024-02-15T07:44:32;13.90;;;6.57;;
46110;SDS011;31849;55.992;37.252;2024-02-15T07:49:40;13.17;;;6.43;;
46110;SDS011;31849;55.992;37.252;2024-02-15T07:54:45;13.70;;;5.43;;
46110;SDS011;31849;55.992;37.252;2024-02-15T07:59:49;14.95;;;7.05;;
46110;SDS011;31849;55.992;37.252;2024-02-15T08:04:55;15.18;;;6.28;;
46110;SDS011;31849;55.992;37.252;2024-02-15T08:09:59;17.53;;;7.00;;
46110;SDS011;31849;55.992;37.252;2024-02-15T08:15:03;16.97;;;6.93;;
46110;SDS011;31849;55.992;37.252;2024-02-15T08:20:09;14.07;;;5.30;;
46110;SDS011;31849;55.992;37.252;2024-02-15T08:25:14;14.67;;;6.60;;
46110;SDS011;31849;55.992;37.252;2024-02-15T08:30:20;14.97;;;7.27;;
46110;SDS011;31849;55.992;37.252;2024-02-15T08:35:27;15.67;;;6.47;;
46110;SDS011;31849;55.992;37.252;2024-02-15T08:40:31;16.27;;;7.70;;
46110;SDS011;31849;55.992;37.252;2024-02-15T08:45:35;16.92;;;6.25;;
46110;SDS011;31849;55.992;37.252;2024-02-15T08:50:41;18.08;;;7.13;;
46110;SDS011;31849;55.992;37.252;2024-02-15T08:55:47;21.77;;;7.83;;
46110;SDS011;31849;55.992;37.252;2024-02-15T09:00:51;20.98;;;7.95;;
46110;SDS011;31849;55.992;37.252;2024-02-15T09:05:58;20.37;;;7.30;;
46110;SDS011;31849;55.992;37.252;2024-02-15T09:11:06;17.87;;;7.60;;
46110;SDS011;31849;55.992;37.252;2024-02-15T09:16:14;17.40;;;7.97;;
46110;SDS011;31849;55.992;37.252;2024-02-15T09:26:55;16.40;;;8.27;;
46110;SDS011;31849;55.992;37.252;2024-02-15T09:31:58;19.25;;;8.13;;
46110;SDS011;31849;55.992;37.252;2024-02-15T09:37:05;17.43;;;7.23;;
46110;SDS011;31849;55.992;37.252;2024-02-15T09:42:09;15.83;;;7.40;;
46110;SDS011;31849;55.992;37.252;2024-02-15T09:47:12;18.02;;;8.15;;
46110;SDS011;31849;55.992;37.252;2024-02-15T09:52:22;16.07;;;7.17;;
46110;SDS011;31849;55.992;37.252;2024-02-15T09:57:26;15.07;;;7.33;;
46110;SDS011;31849;55.992;37.252;2024-02-15T10:02:31;14.63;;;6.67;;
46110;SDS011;31849;55.992;37.252;2024-02-15T10:07:36;16.92;;;8.35;;
46110;SDS011;31849;55.992;37.252;2024-02-15T10:12:40;15.63;;;8.03;;
46110;SDS011;31849;55.992;37.252;2024-02-15T10:23:10;19.83;;;8.83;;
46110;SDS011;31849;55.992;37.252;2024-02-15T10:28:20;17.83;;;8.23;;
46110;SDS011;31849;55.992;37.252;2024-02-15T10:33:26;20.80;;;8.20;;
46110;SDS011;31849;55.992;37.252;2024-02-15T10:38:34;19.30;;;8.50;;
46110;SDS011;31849;55.992;37.252;2024-02-15T10:43:38;16.83;;;8.83;;
46110;SDS011;31849;55.992;37.252;2024-02-15T10:48:48;17.00;;;7.60;;
46110;SDS011;31849;55.992;37.252;2024-02-15T10:53:57;17.35;;;8.80;;
46110;SDS011;31849;55.992;37.252;2024-02-15T10:59:09;20.20;;;8.50;;
46110;SDS011;31849;55.992;37.252;2024-02-15T11:04:19;17.30;;;8.63;;
46110;SDS011;31849;55.992;37.252;2024-02-15T11:09:26;20.27;;;8.67;;
46110;SDS011;31849;55.992;37.252;2024-02-15T11:14:32;18.93;;;8.80;;
46110;SDS011;31849;55.992;37.252;2024-02-15T11:19:45;17.13;;;8.00;;
46110;SDS011;31849;55.992;37.252;2024-02-15T11:24:51;17.63;;;7.97;;
46110;SDS011;31849;55.992;37.252;2024-02-15T11:29:55;16.67;;;8.30;;
46110;SDS011;31849;55.992;37.252;2024-02-15T11:35:05;20.40;;;7.83;;
46110;SDS011;31849;55.992;37.252;2024-02-15T11:40:16;16.10;;;6.97;;
46110;SDS011;31849;55.992;37.252;2024-02-15T11:45:21;20.83;;;9.63;;
46110;SDS011;31849;55.992;37.252;2024-02-15T11:50:26;16.98;;;8.65;;
46110;SDS011;31849;55.992;37.252;2024-02-15T11:55:32;22.27;;;9.10;;
46110;SDS011;31849;55.992;37.252;2024-02-15T12:00:37;21.07;;;9.27;;
46110;SDS011;31849;55.992;37.252;2024-02-15T12:06:04;19.77;;;9.50;;
46110;SDS011;31849;55.992;37.252;2024-02-15T12:11:27;19.77;;;8.70;;
46110;SDS011;31849;55.992;37.252;2024-02-15T12:16:58;19.77;;;9.13;;
46110;SDS011;31849;55.992;37.252;2024-02-15T12:22:21;19.07;;;9.37;;
46110;SDS011;31849;55.992;37.252;2024-02-15T12:27:28;19.33;;;8.70;;
46110;SDS011;31849;55.992;37.252;2024-02-15T12:32:32;20.60;;;9.93;;
46110;SDS011;31849;55.992;37.252;2024-02-15T12:37:37;21.58;;;11.02;;
46110;SDS011;31849;55.992;37.252;2024-02-15T12:42:44;20.37;;;9.90;;
46110;SDS011;31849;55.992;37.252;2024-02-15T12:47:50;19.77;;;9.13;;
46110;SDS011;31849;55.992;37.252;2024-02-15T12:52:54;23.33;;;10.00;;
46110;SDS011;31849;55.992;37.252;2024-02-15T12:58:05;18.73;;;8.77;;
46110;SDS011;31849;55.992;37.252;2024-02-15T13:03:11;23.17;;;10.23;;
46110;SDS011;31849;55.992;37.252;2024-02-15T13:08:17;19.17;;;8.10;;
46110;SDS011;31849;55.992;37.252;2024-02-15T13:13:23;29.30;;;10.07;;
46110;SDS011;31849;55.992;37.252;2024-02-15T13:18:27;25.00;;;10.67;;
46110;SDS011;31849;55.992;37.252;2024-02-15T13:23:32;17.27;;;8.77;;
46110;SDS011;31849;55.992;37.252;2024-02-15T13:28:39;22.73;;;10.17;;
46110;SDS011;31849;55.992;37.252;2024-02-15T13:33:43;22.73;;;9.53;;
46110;SDS011;31849;55.992;37.252;2024-02-15T13:38:48;24.57;;;10.13;;
46110;SDS011;31849;55.992;37.252;2024-02-15T13:43:55;20.90;;;7.67;;
46110;SDS011;31849;55.992;37.252;2024-02-15T13:48:58;26.07;;;9.07;;
46110;SDS011;31849;55.992;37.252;2024-02-15T13:54:30;17.20;;;7.47;;
46110;SDS011;31849;55.992;37.252;2024-02-15T13:59:36;24.67;;;9.13;;
46110;SDS011;31849;55.992;37.252;2024-02-15T14:04:40;21.07;;;8.87;;
46110;SDS011;31849;55.992;37.252;2024-02-15T14:09:45;20.63;;;9.60;;
46110;SDS011;31849;55.992;37.252;2024-02-15T14:20:23;21.10;;;10.10;;
46110;SDS011;31849;55.992;37.252;2024-02-15T14:25:27;20.52;;;9.07;;
46110;SDS011;31849;55.992;37.252;2024-02-15T14:30:34;19.97;;;8.70;;
46110;SDS011;31849;55.992;37.252;2024-02-15T14:35:56;25.63;;;10.53;;
46110;SDS011;31849;55.992;37.252;2024-02-15T14:41:02;22.40;;;10.90;;
46110;SDS011;31849;55.992;37.252;2024-02-15T14:46:11;24.00;;;10.23;;
46110;SDS011;31849;55.992;37.252;2024-02-15T14:51:29;27.50;;;9.83;;
46110;SDS011;31849;55.992;37.252;2024-02-15T15:01:41;26.43;;;10.37;;
46110;SDS011;31849;55.992;37.252;2024-02-15T15:06:45;24.40;;;10.90;;
46110;SDS011;31849;55.992;37.252;2024-02-15T15:12:07;24.83;;;10.77;;
46110;SDS011;31849;55.992;37.252;2024-02-15T15:17:29;21.50;;;9.87;;
46110;SDS011;31849;55.992;37.252;2024-02-15T15:22:33;23.73;;;9.63;;
46110;SDS011;31849;55.992;37.252;2024-02-15T15:27:54;21.60;;;9.73;;
46110;SDS011;31849;55.992;37.252;2024-02-15T15:33:00;22.00;;;10.27;;
46110;SDS011;31849;55.992;37.252;2024-02-15T15:38:04;18.87;;;9.63;;
46110;SDS011;31849;55.992;37.252;2024-02-15T15:43:08;19.25;;;9.02;;
46110;SDS011;31849;55.992;37.252;2024-02-15T15:48:16;25.00;;;10.20;;
46110;SDS011;31849;55.992;37.252;2024-02-15T15:53:20;22.23;;;9.40;;
46110;SDS011;31849;55.992;37.252;2024-02-15T15:58:24;22.75;;;10.02;;
46110;SDS011;31849;55.992;37.252;2024-02-15T16:03:29;25.23;;;10.00;;
46110;SDS011;31849;55.992;37.252;2024-02-15T16:08:33;19.50;;;9.17;;
46110;SDS011;31849;55.992;37.252;2024-02-15T16:13:37;23.45;;;9.55;;
46110;SDS011;31849;55.992;37.252;2024-02-15T16:18:43;21.33;;;9.88;;
46110;SDS011;31849;55.992;37.252;2024-02-15T16:23:47;22.23;;;9.67;;
46110;SDS011;31849;55.992;37.252;2024-02-15T16:33:56;23.23;;;10.40;;
46110;SDS011;31849;55.992;37.252;2024-02-15T16:39:00;21.53;;;9.37;;
46110;SDS011;31849;55.992;37.252;2024-02-15T16:44:04;18.67;;;8.77;;
46110;SDS011;31849;55.992;37.252;2024-02-15T16:49:10;21.83;;;10.07;;
46110;SDS011;31849;55.992;37.252;2024-02-15T16:54:16;21.67;;;10.33;;
46110;SDS011;31849;55.992;37.252;2024-02-15T16:59:22;21.83;;;9.30;;
46110;SDS011;31849;55.992;37.252;2024-02-15T17:04:28;17.45;;;9.18;;
46110;SDS011;31849;55.992;37.252;2024-02-15T17:09:32;19.37;;;8.33;;
46110;SDS011;31849;55.992;37.252;2024-02-15T17:14:37;23.67;;;8.70;;
46110;SDS011;31849;55.992;37.252;2024-02-15T17:19:43;20.25;;;8.85;;
46110;SDS011;31849;55.992;37.252;2024-02-15T17:24:48;19.23;;;9.03;;
46110;SDS011;31849;55.992;37.252;2024-02-15T17:29:52;19.98;;;8.02;;
46110;SDS011;31849;55.992;37.252;2024-02-15T17:35:04;22.57;;;9.57;;
46110;SDS011;31849;55.992;37.252;2024-02-15T17:40:10;21.37;;;9.53;;
46110;SDS011;31849;55.992;37.252;2024-02-15T17:50:20;21.05;;;9.15;;
46110;SDS011;31849;55.992;37.252;2024-02-15T17:55:27;15.80;;;7.70;;
46110;SDS011;31849;55.992;37.252;2024-02-15T18:00:31;25.02;;;10.65;;
46110;SDS011;31849;55.992;37.252;2024-02-15T18:05:39;21.37;;;9.63;;
46110;SDS011;31849;55.992;37.252;2024-02-15T18:10:48;16.47;;;7.73;;
46110;SDS011;31849;55.992;37.252;2024-02-15T18:20:57;22.93;;;9.50;;
46110;SDS011;31849;55.992;37.252;2024-02-15T18:26:01;18.00;;;8.63;;
46110;SDS011;31849;55.992;37.252;2024-02-15T18:31:05;21.17;;;9.80;;
46110;SDS011;31849;55.992;37.252;2024-02-15T18:36:12;22.30;;;9.93;;
46110;SDS011;31849;55.992;37.252;2024-02-15T18:41:15;21.03;;;8.87;;
46110;SDS011;31849;55.992;37.252;2024-02-15T18:46:20;24.27;;;11.23;;
46110;SDS011;31849;55.992;37.252;2024-02-15T18:51:25;20.17;;;10.13;;
46110;SDS011;31849;55.992;37.252;2024-02-15T18:56:29;25.83;;;9.63;;
46110;SDS011;31849;55.992;37.252;2024-02-15T19:01:33;17.38;;;7.82;;
46110;SDS011;31849;55.992;37.252;2024-02-15T19:06:39;19.17;;;9.82;;
46110;SDS011;31849;55.992;37.252;2024-02-15T19:11:43;23.33;;;10.17;;
46110;SDS011;31849;55.992;37.252;2024-02-15T19:16:47;17.73;;;8.93;;
46110;SDS011;31849;55.992;37.252;2024-02-15T19:21:52;25.27;;;11.50;;
46110;SDS011;31849;55.992;37.252;2024-02-15T19:26:56;23.93;;;10.63;;
46110;SDS011;31849;55.992;37.252;2024-02-15T19:32:00;17.60;;;7.10;;
46110;SDS011;31849;55.992;37.252;2024-02-15T19:37:05;23.07;;;10.50;;
46110;SDS011;31849;55.992;37.252;2024-02-15T19:42:16;23.40;;;11.03;;
46110;SDS011;31849;55.992;37.252;2024-02-15T19:47:20;25.13;;;10.77;;
46110;SDS011;31849;55.992;37.252;2024-02-15T19:52:28;26.63;;;11.53;;
46110;SDS011;31849;55.992;37.252;2024-02-15T19:57:31;22.17;;;10.93;;
46110;SDS011;31849;55.992;37.252;2024-02-15T20:02:35;23.85;;;10.65;;
46110;SDS011;31849;55.992;37.252;2024-02-15T20:07:40;20.67;;;10.40;;
46110;SDS011;31849;55.992;37.252;2024-02-15T20:12:45;23.47;;;10.50;;
46110;SDS011;31849;55.992;37.252;2024-02-15T20:17:48;23.15;;;10.00;;
46110;SDS011;31849;55.992;37.252;2024-02-15T20:22:54;23.67;;;10.68;;
46110;SDS011;31849;55.992;37.252;2024-02-15T20:27:58;24.47;;;11.23;;
46110;SDS011;31849;55.992;37.252;2024-02-15T20:33:04;29.53;;;12.20;;
46110;SDS011;31849;55.992;37.252;2024-02-15T20:38:17;26.07;;;12.40;;
46110;SDS011;31849;55.992;37.252;2024-02-15T20:43:25;24.07;;;10.87;;
46110;SDS011;31849;55.992;37.252;2024-02-15T20:48:42;25.83;;;11.13;;
46110;SDS011;31849;55.992;37.252;2024-02-15T20:53:50;25.93;;;10.70;;
46110;SDS011;31849;55.992;37.252;2024-02-15T20:58:55;24.33;;;11.37;;
46110;SDS011;31849;55.992;37.252;2024-02-15T21:03:59;22.02;;;10.88;;
46110;SDS011;31849;55.992;37.252;2024-02-15T21:09:07;23.67;;;11.43;;
46110;SDS011;31849;55.992;37.252;2024-02-15T21:14:16;23.07;;;11.47;;
46110;SDS011;31849;55.992;37.252;2024-02-15T21:19:20;22.27;;;11.23;;
46110;SDS011;31849;55.992;37.252;2024-02-15T21:24:25;24.35;;;9.05;;
46110;SDS011;31849;55.992;37.252;2024-02-15T21:29:30;25.83;;;11.37;;
46110;SDS011;31849;55.992;37.252;2024-02-15T21:34:33;25.38;;;11.05;;
46110;SDS011;31849;55.992;37.252;2024-02-15T21:39:39;27.47;;;10.47;;
46110;SDS011;31849;55.992;37.252;2024-02-15T21:44:43;25.83;;;11.57;;
46110;SDS011;31849;55.992;37.252;2024-02-15T21:49:49;27.93;;;11.53;;
46110;SDS011;31849;55.992;37.252;2024-02-15T21:54:54;25.23;;;12.18;;
46110;SDS011;31849;55.992;37.252;2024-02-15T21:59:58;25.13;;;11.63;;
46110;SDS011;31849;55.992;37.252;2024-02-15T22:05:03;28.67;;;11.73;;
46110;SDS011;31849;55.992;37.252;2024-02-15T22:10:09;25.33;;;11.77;;
46110;SDS011;31849;55.992;37.252;2024-02-15T22:15:13;28.17;;;11.33;;
46110;SDS011;31849;55.992;37.252;2024-02-15T22:20:17;28.25;;;12.60;;
46110;SDS011;31849;55.992;37.252;2024-02-15T22:25:22;25.25;;;12.63;;
46110;SDS011;31849;55.992;37.252;2024-02-15T22:30:26;28.47;;;12.17;;
46110;SDS011;31849;55.992;37.252;2024-02-15T22:35:30;27.83;;;12.70;;
46110;SDS011;31849;55.992;37.252;2024-02-15T22:40:35;31.27;;;12.45;;
46110;SDS011;31849;55.992;37.252;2024-02-15T22:45:39;29.47;;;13.50;;
46110;SDS011;31849;55.992;37.252;2024-02-15T22:50:42;23.50;;;12.57;;
46110;SDS011;31849;55.992;37.252;2024-02-15T22:55:50;25.63;;;11.70;;
46110;SDS011;31849;55.992;37.252;2024-02-15T23:00:54;29.30;;;12.73;;
46110;SDS011;31849;55.992;37.252;2024-02-15T23:05:58;26.88;;;12.60;;
46110;SDS011;31849;55.992;37.252;2024-02-15T23:11:03;31.73;;;13.35;;
46110;SDS011;31849;55.992;37.252;2024-02-15T23:16:08;25.40;;;11.40;;
46110;SDS011;31849;55.992;37.252;2024-02-15T23:21:12;25.67;;;12.10;;
46110;SDS011;31849;55.992;37.252;2024-02-15T23:26:19;25.47;;;13.13;;
46110;SDS011;31849;55.992;37.252;2024-02-15T23:31:23;31.03;;;12.63;;
46110;SDS011;31849;55.992;37.252;2024-02-15T23:36:27;28.75;;;12.20;;
46110;SDS011;31849;55.992;37.252;2024-02-15T23:41:50;21.60;;;9.80;;
46110;SDS011;31849;55.992;37.252;2024-02-15T23:46:54;26.77;;;11.73;;
46110;SDS011;31849;55.992;37.252;2024-02-15T23:51:58;28.17;;;12.50;;
46110;SDS011;31849;55.992;37.252;2024-02-15T23:57:03;27.58;;;12.88;;
